Time;durP1;ratioP1;P1;durP2;ratioP2;P2;SDS_P1;SDS_P2;PMS_P1;PMS_P2;Temp;Humidity;BMP_temperature;BMP_pressure;BME280_temperature;BME280_humidity;BME280_pressure;Samples;Min_cycle;Max_cycle;Signal;HPM_P1;HPM_P2
2022/07/22 00:01:20;;;;;;;16.38;4.30;;;15.90;99.90;;;;;;5088026;28;20048;-68
2022/07/22 00:03:46;;;;;;;17.05;4.18;;;15.90;99.90;;;;;;5102458;28;20047;-68
2022/07/22 00:06:12;;;;;;;16.92;3.97;;;15.90;99.90;;;;;;5107627;28;20036;-67
2022/07/22 00:08:38;;;;;;;21.30;4.75;;;15.90;99.90;;;;;;5084310;28;20060;-67
2022/07/22 00:11:07;;;;;;;24.73;4.88;;;15.90;99.90;;;;;;5105679;28;20039;-67
2022/07/22 00:13:32;;;;;;;20.63;3.95;;;15.90;99.90;;;;;;5101001;28;20130;-69
2022/07/22 00:15:59;;;;;;;18.98;4.70;;;15.90;99.90;;;;;;5102083;28;20127;-67
2022/07/22 00:18:24;;;;;;;16.13;4.05;;;16.00;99.90;;;;;;5084745;28;20035;-67
2022/07/22 00:20:50;;;;;;;12.88;4.15;;;15.90;99.90;;;;;;5077377;28;20562;-67
2022/07/22 00:23:16;;;;;;;16.58;4.20;;;16.00;99.90;;;;;;5111210;28;20040;-67
2022/07/22 00:25:45;;;;;;;16.90;3.28;;;16.00;99.90;;;;;;5091887;28;20106;-67
2022/07/22 00:28:14;;;;;;;13.40;3.30;;;16.00;99.90;;;;;;5094556;28;20050;-68
2022/07/22 00:30:39;;;;;;;15.75;3.25;;;16.00;99.90;;;;;;5100736;28;20077;-67
2022/07/22 00:33:05;;;;;;;11.52;3.40;;;16.00;99.90;;;;;;5088923;28;20040;-66
2022/07/22 00:35:31;;;;;;;10.00;2.70;;;16.00;99.90;;;;;;5082725;28;20040;-68
2022/07/22 00:37:56;;;;;;;14.50;3.15;;;16.00;99.90;;;;;;5103471;28;20043;-67
2022/07/22 00:40:22;;;;;;;15.63;3.33;;;16.10;99.90;;;;;;5106424;28;20035;-68
2022/07/22 00:42:49;;;;;;;18.25;2.80;;;16.00;99.90;;;;;;5102824;28;20118;-66
2022/07/22 00:45:14;;;;;;;11.45;2.88;;;16.10;99.90;;;;;;5104983;28;20126;-67
2022/07/22 00:47:40;;;;;;;14.02;2.90;;;16.00;99.90;;;;;;5097691;28;20142;-67
2022/07/22 00:50:09;;;;;;;9.55;2.75;;;16.00;99.90;;;;;;5106175;28;20043;-68
2022/07/22 00:52:38;;;;;;;15.00;3.03;;;16.00;99.90;;;;;;5107466;28;20044;-67
2022/07/22 00:55:05;;;;;;;11.38;3.08;;;16.00;99.90;;;;;;5084065;28;20039;-68
2022/07/22 00:57:31;;;;;;;11.50;2.70;;;16.00;99.90;;;;;;5091731;28;20036;-66
2022/07/22 00:59:56;;;;;;;13.82;3.47;;;16.00;99.90;;;;;;5108870;28;20043;-66
2022/07/22 01:02:23;;;;;;;11.95;2.88;;;16.00;99.90;;;;;;5103823;28;20047;-67
2022/07/22 01:04:48;;;;;;;13.55;2.97;;;16.00;99.90;;;;;;5103658;28;20044;-66
2022/07/22 01:07:14;;;;;;;11.30;3.03;;;15.90;99.90;;;;;;5073853;28;20082;-67
2022/07/22 01:09:46;;;;;;;10.15;2.92;;;16.00;99.90;;;;;;5108047;28;20042;-67
2022/07/22 01:12:12;;;;;;;8.80;2.30;;;16.00;99.90;;;;;;5090346;28;20032;-67
2022/07/22 01:14:38;;;;;;;11.32;2.90;;;15.90;99.90;;;;;;5085529;28;20039;-67
2022/07/22 01:17:04;;;;;;;13.85;2.88;;;16.00;99.90;;;;;;5086309;28;20040;-68
2022/07/22 01:19:30;;;;;;;16.02;3.40;;;15.80;99.90;;;;;;5069979;28;20452;-68
2022/07/22 01:21:55;;;;;;;7.82;2.30;;;15.90;99.90;;;;;;5087135;28;20048;-67
2022/07/22 01:24:21;;;;;;;10.95;2.60;;;15.90;99.90;;;;;;5107358;28;20031;-68
2022/07/22 01:26:47;;;;;;;8.98;2.25;;;16.00;99.90;;;;;;5103512;28;20055;-67
2022/07/22 01:29:13;;;;;;;10.27;3.08;;;16.00;99.90;;;;;;5079420;28;20044;-67
2022/07/22 01:31:38;;;;;;;9.45;2.50;;;15.90;99.90;;;;;;5091196;28;20047;-67
2022/07/22 01:34:04;;;;;;;11.32;2.95;;;15.90;99.90;;;;;;5089973;28;20051;-67
2022/07/22 01:36:30;;;;;;;11.98;3.17;;;16.00;99.90;;;;;;5090485;28;20043;-67
2022/07/22 01:38:56;;;;;;;9.05;2.30;;;16.00;99.90;;;;;;5101808;28;20043;-67
2022/07/22 01:41:22;;;;;;;11.05;2.38;;;16.00;99.90;;;;;;5103358;28;20063;-68
2022/07/22 01:43:48;;;;;;;9.23;2.30;;;16.00;99.90;;;;;;5092030;28;20086;-67
2022/07/22 01:46:14;;;;;;;11.70;2.38;;;15.90;99.90;;;;;;5106315;28;20047;-67
2022/07/22 01:48:40;;;;;;;5.93;2.28;;;15.90;99.90;;;;;;5092570;28;21347;-68
2022/07/22 01:51:08;;;;;;;8.27;2.38;;;15.90;99.90;;;;;;5081410;28;20123;-67
2022/07/22 01:53:37;;;;;;;10.10;2.47;;;15.90;99.90;;;;;;5086914;28;20213;-66
2022/07/22 01:56:03;;;;;;;12.40;2.88;;;15.90;99.90;;;;;;5089804;28;20039;-66
2022/07/22 01:58:29;;;;;;;6.72;1.90;;;16.00;99.90;;;;;;5117247;28;20060;-68
2022/07/22 02:00:55;;;;;;;9.93;2.40;;;16.00;99.90;;;;;;5089244;28;20043;-67
2022/07/22 02:03:21;;;;;;;7.28;2.08;;;16.00;99.90;;;;;;5097219;28;20075;-67
2022/07/22 02:05:47;;;;;;;7.22;2.35;;;16.00;99.90;;;;;;5077011;28;20506;-67
2022/07/22 02:08:13;;;;;;;6.75;1.95;;;16.00;99.90;;;;;;5083704;28;20079;-66
2022/07/22 02:10:39;;;;;;;7.55;2.20;;;16.00;99.90;;;;;;5110297;28;20051;-68
2022/07/22 02:13:05;;;;;;;8.77;2.15;;;16.00;99.90;;;;;;5070802;28;20131;-68
2022/07/22 02:15:31;;;;;;;8.82;2.10;;;16.00;99.90;;;;;;5104194;28;20565;-67
2022/07/22 02:17:56;;;;;;;11.27;2.75;;;16.00;99.90;;;;;;5083585;28;20062;-67
2022/07/22 02:20:23;;;;;;;8.82;2.60;;;16.10;99.90;;;;;;5062947;28;20131;-67
2022/07/22 02:22:48;;;;;;;10.38;2.45;;;16.00;99.90;;;;;;5080280;28;20062;-67
2022/07/22 02:25:14;;;;;;;14.23;3.08;;;15.90;99.90;;;;;;5098390;28;20043;-67
2022/07/22 02:27:41;;;;;;;13.48;3.13;;;16.00;99.90;;;;;;5098880;28;20043;-67
2022/07/22 02:30:07;;;;;;;9.13;2.30;;;16.00;99.90;;;;;;5102054;28;20043;-67
2022/07/22 02:32:34;;;;;;;10.35;2.72;;;16.00;99.90;;;;;;5078292;28;20401;-67
2022/07/22 02:35:00;;;;;;;9.55;2.30;;;16.00;99.90;;;;;;5080547;28;20058;-67
2022/07/22 02:37:27;;;;;;;14.02;3.10;;;15.90;99.90;;;;;;5079164;28;20043;-66
2022/07/22 02:39:53;;;;;;;5.57;2.28;;;16.00;99.90;;;;;;5088109;28;20401;-68
2022/07/22 02:42:19;;;;;;;15.52;2.42;;;16.00;99.90;;;;;;5086288;28;20040;-67
2022/07/22 02:44:47;;;;;;;16.05;2.25;;;16.00;99.90;;;;;;5108683;28;20050;-68
2022/07/22 02:47:13;;;;;;;7.15;2.53;;;15.90;99.90;;;;;;5104193;28;20036;-67
2022/07/22 02:49:38;;;;;;;8.93;2.50;;;15.90;99.90;;;;;;5106798;28;20039;-69
2022/07/22 02:52:04;;;;;;;10.73;2.35;;;15.90;99.90;;;;;;5105861;28;20041;-67
2022/07/22 02:54:30;;;;;;;8.55;2.70;;;15.80;99.90;;;;;;5103070;28;20474;-67
2022/07/22 02:56:55;;;;;;;7.90;2.50;;;15.90;99.90;;;;;;5108119;27;20050;-67
2022/07/22 02:59:21;;;;;;;7.00;2.20;;;15.90;99.90;;;;;;5102660;28;20047;-68
2022/07/22 03:01:47;;;;;;;9.10;2.33;;;15.90;99.90;;;;;;5105524;28;20036;-67
2022/07/22 03:04:12;;;;;;;10.20;2.85;;;15.80;99.90;;;;;;5112706;28;20040;-68
2022/07/22 03:06:41;;;;;;;6.88;1.90;;;15.90;99.90;;;;;;5107730;28;20053;-67
2022/07/22 03:09:07;;;;;;;10.75;2.85;;;15.90;99.90;;;;;;5094743;28;20036;-67
2022/07/22 03:11:32;;;;;;;10.80;2.25;;;15.90;99.90;;;;;;5086797;28;20451;-68
2022/07/22 03:13:58;;;;;;;7.55;1.98;;;15.90;99.90;;;;;;5105184;28;20813;-68
2022/07/22 03:16:27;;;;;;;7.45;2.10;;;15.80;99.90;;;;;;5110077;28;20038;-69
2022/07/22 03:18:52;;;;;;;6.60;2.45;;;15.90;99.90;;;;;;5092854;28;20055;-68
2022/07/22 03:21:18;;;;;;;9.48;2.10;;;15.90;99.90;;;;;;5086642;28;20082;-67
2022/07/22 03:23:44;;;;;;;12.98;2.30;;;15.80;99.90;;;;;;5103858;28;20071;-68
2022/07/22 03:26:09;;;;;;;8.85;2.47;;;15.80;99.90;;;;;;5082168;28;20097;-68
2022/07/22 03:28:35;;;;;;;8.30;1.92;;;15.80;99.90;;;;;;5109616;28;20124;-68
2022/07/22 03:31:01;;;;;;;9.95;2.28;;;16.00;99.90;;;;;;5108295;28;20130;-68
2022/07/22 03:33:26;;;;;;;10.50;2.05;;;15.90;99.90;;;;;;5090670;28;20794;-67
2022/07/22 03:35:55;;;;;;;8.80;2.20;;;15.90;99.90;;;;;;5088132;28;20070;-67
2022/07/22 03:38:21;;;;;;;9.38;2.67;;;15.90;99.90;;;;;;5103365;28;20373;-67
2022/07/22 03:40:46;;;;;;;10.38;2.15;;;15.80;99.90;;;;;;5079763;28;20067;-67
2022/07/22 03:43:12;;;;;;;9.50;2.58;;;15.80;99.90;;;;;;5113193;28;20680;-67
2022/07/22 03:45:38;;;;;;;8.38;2.50;;;15.80;99.90;;;;;;5092041;28;20067;-67
2022/07/22 03:48:04;;;;;;;10.32;2.05;;;15.80;99.90;;;;;;5111706;28;20043;-67
2022/07/22 03:50:30;;;;;;;10.52;2.25;;;15.80;99.90;;;;;;5106996;28;20062;-67
2022/07/22 03:52:55;;;;;;;7.28;2.00;;;15.80;99.90;;;;;;5110792;28;20047;-67
2022/07/22 03:55:21;;;;;;;8.32;2.05;;;15.80;99.90;;;;;;5104007;27;20031;-67
2022/07/22 03:57:47;;;;;;;5.80;2.10;;;15.80;99.90;;;;;;5084848;28;20044;-67
2022/07/22 04:00:13;;;;;;;9.25;2.20;;;15.80;99.90;;;;;;5081826;28;20051;-67
2022/07/22 04:02:38;;;;;;;9.90;2.17;;;15.80;99.90;;;;;;5112462;28;20035;-67
2022/07/22 04:05:07;;;;;;;11.75;2.50;;;15.80;99.90;;;;;;5092397;28;20097;-67
2022/07/22 04:07:32;;;;;;;9.98;2.50;;;15.80;99.90;;;;;;5112318;28;20035;-67
2022/07/22 04:10:04;;;;;;;13.70;2.60;;;15.90;99.90;;;;;;5104393;28;20114;-67
2022/07/22 04:12:35;;;;;;;9.98;2.63;;;15.80;99.90;;;;;;5103970;28;20048;-66
2022/07/22 04:15:01;;;;;;;12.50;1.95;;;15.90;99.90;;;;;;5101010;27;20040;-67
2022/07/22 04:17:26;;;;;;;8.13;2.10;;;15.70;99.90;;;;;;5103516;28;21615;-68
2022/07/22 04:19:55;;;;;;;10.65;2.60;;;15.90;99.90;;;;;;5102424;28;20130;-67
2022/07/22 04:22:21;;;;;;;4.85;1.63;;;15.90;99.90;;;;;;5107230;28;20074;-68
2022/07/22 04:24:47;;;;;;;6.15;2.20;;;15.80;99.90;;;;;;5087120;28;20032;-67
2022/07/22 04:27:13;;;;;;;5.57;1.65;;;15.80;99.90;;;;;;5105220;28;20422;-67
2022/07/22 04:29:41;;;;;;;6.68;1.88;;;15.80;99.90;;;;;;5089519;28;20047;-68
2022/07/22 04:32:07;;;;;;;9.30;2.47;;;15.90;99.90;;;;;;5068018;28;20040;-67
2022/07/22 04:34:33;;;;;;;15.35;2.13;;;15.80;99.90;;;;;;5084966;28;20047;-67
2022/07/22 04:36:59;;;;;;;10.48;2.20;;;15.90;99.90;;;;;;5080116;28;20135;-67
2022/07/22 04:39:24;;;;;;;4.55;1.70;;;15.90;99.90;;;;;;5081979;28;20118;-68
2022/07/22 04:41:50;;;;;;;10.13;2.30;;;15.80;99.90;;;;;;5108345;28;20132;-67
2022/07/22 04:44:16;;;;;;;7.88;2.15;;;15.90;99.90;;;;;;5089712;28;20478;-67
2022/07/22 04:46:41;;;;;;;5.63;1.95;;;15.90;99.90;;;;;;5112702;28;20038;-69
2022/07/22 04:49:07;;;;;;;9.32;2.20;;;15.80;99.90;;;;;;5102681;28;20043;-67
2022/07/22 04:51:35;;;;;;;11.68;2.38;;;15.90;99.90;;;;;;5104654;28;20116;-67
2022/07/22 04:54:01;;;;;;;7.70;2.30;;;15.90;99.90;;;;;;5079269;28;20070;-68
2022/07/22 04:56:27;;;;;;;10.88;1.92;;;15.90;99.90;;;;;;5102552;28;20044;-68
2022/07/22 04:58:52;;;;;;;14.98;2.25;;;15.80;99.90;;;;;;5076313;28;20493;-68
2022/07/22 05:01:18;;;;;;;7.22;1.85;;;15.80;99.90;;;;;;5106712;28;20036;-68
2022/07/22 05:03:44;;;;;;;7.32;2.60;;;15.80;99.90;;;;;;5106391;28;20493;-68
2022/07/22 05:06:10;;;;;;;9.07;2.17;;;15.90;99.90;;;;;;5100551;28;20625;-67
2022/07/22 05:08:36;;;;;;;6.60;2.35;;;15.80;99.90;;;;;;5084832;28;20037;-67
2022/07/22 05:11:07;;;;;;;8.75;2.00;;;15.90;99.90;;;;;;5096612;28;20054;-69
2022/07/22 05:13:33;;;;;;;12.25;2.45;;;15.90;99.90;;;;;;5098998;28;20478;-67
2022/07/22 05:16:03;;;;;;;6.72;2.20;;;15.90;99.90;;;;;;5101854;28;20031;-66
2022/07/22 05:18:29;;;;;;;8.48;1.85;;;16.00;99.90;;;;;;5097208;28;20040;-68
2022/07/22 05:20:55;;;;;;;7.10;2.08;;;15.90;99.90;;;;;;5093483;28;20135;-68
2022/07/22 05:23:20;;;;;;;9.25;2.20;;;15.90;99.90;;;;;;5106709;28;20046;-66
2022/07/22 05:25:46;;;;;;;6.47;1.90;;;15.90;99.90;;;;;;5107932;28;20067;-67
2022/07/22 05:28:12;;;;;;;7.32;2.00;;;15.90;99.90;;;;;;5083447;28;20040;-68
2022/07/22 05:30:39;;;;;;;6.07;1.85;;;15.90;99.90;;;;;;5082629;28;20214;-67
2022/07/22 05:33:04;;;;;;;11.40;2.22;;;15.90;99.90;;;;;;5101125;28;20517;-68
2022/07/22 05:35:36;;;;;;;9.02;2.35;;;16.00;99.90;;;;;;5097313;28;20040;-68
2022/07/22 05:38:02;;;;;;;8.30;2.20;;;16.00;99.90;;;;;;5089117;28;20185;-68
2022/07/22 05:40:28;;;;;;;10.13;2.10;;;15.90;99.90;;;;;;5111499;28;20393;-69
2022/07/22 05:42:54;;;;;;;8.45;1.95;;;15.90;99.90;;;;;;5110363;28;20083;-67
2022/07/22 05:45:20;;;;;;;8.55;2.03;;;15.90;99.90;;;;;;5111092;28;20706;-69
2022/07/22 05:47:45;;;;;;;9.20;2.10;;;16.00;99.90;;;;;;5091716;28;20048;-68
2022/07/22 05:50:11;;;;;;;10.43;1.98;;;16.00;99.90;;;;;;5106854;28;20043;-67
2022/07/22 05:52:42;;;;;;;6.75;2.13;;;16.00;99.90;;;;;;5101312;28;20036;-67
2022/07/22 05:55:08;;;;;;;7.13;2.22;;;16.00;99.90;;;;;;5086033;28;20393;-69
2022/07/22 05:57:34;;;;;;;7.38;2.00;;;16.00;99.90;;;;;;5100678;28;20043;-69
2022/07/22 05:59:59;;;;;;;7.05;2.05;;;16.10;99.90;;;;;;5091630;28;20052;-68
2022/07/22 06:02:25;;;;;;;9.45;2.20;;;16.00;99.90;;;;;;5087198;28;20121;-68
2022/07/22 06:04:51;;;;;;;9.43;2.03;;;16.00;99.90;;;;;;5096148;28;20119;-68
2022/07/22 06:07:17;;;;;;;10.00;2.28;;;16.00;99.90;;;;;;5092392;28;20436;-67
2022/07/22 06:09:44;;;;;;;14.68;2.10;;;16.00;99.90;;;;;;5109002;28;20359;-68
2022/07/22 06:12:10;;;;;;;12.85;2.83;;;16.00;99.90;;;;;;5091554;28;20744;-67
2022/07/22 06:14:38;;;;;;;5.93;1.80;;;16.10;99.90;;;;;;5111726;28;20048;-66
2022/07/22 06:17:04;;;;;;;12.52;2.08;;;16.10;99.90;;;;;;5112675;28;20044;-68
2022/07/22 06:19:29;;;;;;;5.93;1.90;;;16.20;99.90;;;;;;5103143;28;20404;-68
2022/07/22 06:21:56;;;;;;;7.00;2.10;;;16.10;99.90;;;;;;5102192;28;20104;-68
2022/07/22 06:24:24;;;;;;;6.00;1.80;;;16.10;99.90;;;;;;5115598;28;20138;-68
2022/07/22 06:26:51;;;;;;;9.02;2.15;;;16.10;99.90;;;;;;5115698;28;20063;-67
2022/07/22 06:29:16;;;;;;;4.60;1.70;;;16.30;99.90;;;;;;5079199;28;20094;-67
2022/07/22 06:31:42;;;;;;;5.90;1.95;;;16.30;99.90;;;;;;5114448;28;20067;-68
2022/07/22 06:34:08;;;;;;;9.15;1.73;;;16.30;99.90;;;;;;5099956;28;20051;-68
2022/07/22 06:36:36;;;;;;;10.23;2.00;;;16.30;99.90;;;;;;5113298;28;20419;-67
2022/07/22 06:39:02;;;;;;;9.45;2.83;;;16.40;99.90;;;;;;5103736;28;20043;-68
2022/07/22 06:41:28;;;;;;;6.25;2.03;;;16.40;99.90;;;;;;5114574;28;20596;-68
2022/07/22 06:43:54;;;;;;;10.40;2.22;;;16.50;99.90;;;;;;5092073;28;20040;-67
2022/07/22 06:46:22;;;;;;;10.98;2.53;;;16.50;99.90;;;;;;5097163;28;20485;-68
2022/07/22 06:48:47;;;;;;;;;;;16.60;99.90;;;;;;5098531;28;20579;-68
2022/07/22 06:51:13;;;;;;;7.53;2.50;;;16.70;99.90;;;;;;5103198;28;19971;-68
2022/07/22 06:53:39;;;;;;;6.78;1.67;;;16.70;99.90;;;;;;5114844;28;20047;-67
2022/07/22 06:56:05;;;;;;;7.15;2.47;;;16.70;99.90;;;;;;5113640;27;20482;-68
2022/07/22 06:58:31;;;;;;;6.38;1.60;;;16.70;99.90;;;;;;5095140;28;20562;-69
2022/07/22 07:00:56;;;;;;;8.90;1.83;;;16.80;99.90;;;;;;5085306;28;20211;-67
2022/07/22 07:03:25;;;;;;;5.72;1.73;;;16.80;99.90;;;;;;5110174;28;20052;-67
2022/07/22 07:05:53;;;;;;;7.95;1.83;;;16.80;99.90;;;;;;5109609;28;20081;-67
2022/07/22 07:08:19;;;;;;;5.85;1.20;;;16.80;99.90;;;;;;5116095;28;20516;-68
2022/07/22 07:10:45;;;;;;;6.20;1.80;;;16.80;99.90;;;;;;5096296;28;20075;-67
2022/07/22 07:13:11;;;;;;;5.22;1.90;;;16.90;99.90;;;;;;5095831;28;20082;-67
2022/07/22 07:15:39;;;;;;;7.32;1.70;;;16.80;99.90;;;;;;5097075;28;20035;-67
2022/07/22 07:18:05;;;;;;;7.72;1.92;;;17.00;99.90;;;;;;5112579;28;20565;-67
2022/07/22 07:20:32;;;;;;;5.15;1.63;;;17.00;99.90;;;;;;5060463;28;20047;-70
2022/07/22 07:23:01;;;;;;;3.83;1.13;;;16.90;99.90;;;;;;5086902;28;20040;-69
2022/07/22 07:25:27;;;;;;;9.35;1.73;;;17.00;99.90;;;;;;5100550;28;20159;-70
2022/07/22 07:27:53;;;;;;;5.05;1.30;;;17.10;99.90;;;;;;5095082;28;20136;-67
2022/07/22 07:30:18;;;;;;;6.40;1.70;;;17.10;99.90;;;;;;5115497;28;20046;-67
2022/07/22 07:32:44;;;;;;;4.35;1.70;;;17.20;99.90;;;;;;5108654;28;20105;-68
2022/07/22 07:35:10;;;;;;;7.72;1.52;;;17.20;99.90;;;;;;5080772;28;20051;-67
2022/07/22 07:37:36;;;;;;;5.78;1.45;;;17.30;99.90;;;;;;5112478;28;20398;-68
2022/07/22 07:40:05;;;;;;;7.13;1.48;;;17.30;99.90;;;;;;5094834;28;20048;-68
2022/07/22 07:42:32;;;;;;;7.75;1.60;;;17.30;99.90;;;;;;5096757;28;20036;-68
2022/07/22 07:44:57;;;;;;;5.22;1.15;;;17.30;99.90;;;;;;5110129;28;20059;-66
2022/07/22 07:47:23;;;;;;;5.32;1.92;;;17.30;99.90;;;;;;5112507;28;20032;-66
2022/07/22 07:49:49;;;;;;;3.53;1.55;;;17.30;99.90;;;;;;5095817;28;20492;-66
2022/07/22 07:52:16;;;;;;;8.25;1.90;;;17.30;99.90;;;;;;5112447;28;20043;-67
2022/07/22 07:54:42;;;;;;;6.97;1.58;;;17.30;99.90;;;;;;5114884;28;20497;-67
2022/07/22 07:57:11;;;;;;;5.05;1.60;;;17.30;99.90;;;;;;5089762;28;20075;-67
2022/07/22 07:59:38;;;;;;;5.50;2.00;;;17.40;99.90;;;;;;5113904;28;20042;-66
2022/07/22 08:02:05;;;;;;;5.78;1.60;;;17.40;99.90;;;;;;5097151;28;20125;-67
2022/07/22 08:04:30;;;;;;;6.72;1.48;;;17.50;99.90;;;;;;5094126;28;20047;-65
2022/07/22 08:06:57;;;;;;;6.10;1.35;;;17.50;99.90;;;;;;5113318;28;20385;-65
2022/07/22 08:09:23;;;;;;;6.82;1.73;;;17.60;99.90;;;;;;5096458;28;20451;-67
2022/07/22 08:11:49;;;;;;;8.50;1.58;;;17.60;99.90;;;;;;5112732;28;20043;-69
2022/07/22 08:14:15;;;;;;;5.53;1.65;;;17.60;99.90;;;;;;5114203;28;20051;-66
2022/07/22 08:16:40;;;;;;;12.32;1.60;;;17.60;99.90;;;;;;5081911;28;20253;-66
2022/07/22 08:19:06;;;;;;;3.95;1.60;;;17.60;99.90;;;;;;5108036;28;20039;-65
2022/07/22 08:21:35;;;;;;;5.63;1.63;;;17.50;99.90;;;;;;5111147;28;20043;-67
2022/07/22 08:24:01;;;;;;;5.93;1.60;;;17.60;99.90;;;;;;5074983;28;20094;-67
2022/07/22 08:26:27;;;;;;;6.20;1.55;;;17.70;99.90;;;;;;5081699;28;20036;-65
2022/07/22 08:28:53;;;;;;;11.50;1.80;;;17.60;99.90;;;;;;5092768;28;20048;-66
2022/07/22 08:31:19;;;;;;;4.95;1.73;;;17.50;99.90;;;;;;5087486;28;20066;-65
2022/07/22 08:33:45;;;;;;;6.93;1.58;;;17.50;99.90;;;;;;5078250;28;20050;-65
2022/07/22 08:36:10;;;;;;;9.85;1.63;;;17.60;99.90;;;;;;5076843;28;20400;-66
2022/07/22 08:38:38;;;;;;;11.82;1.83;;;17.50;99.90;;;;;;5106594;28;20039;-66
2022/07/22 08:41:04;;;;;;;9.95;2.05;;;17.50;99.90;;;;;;5112710;28;20124;-65
2022/07/22 08:43:33;;;;;;;9.50;1.58;;;17.50;99.90;;;;;;5095465;28;20067;-67
2022/07/22 08:45:59;;;;;;;8.52;1.70;;;17.50;99.90;;;;;;5108816;28;20489;-66
2022/07/22 08:48:25;;;;;;;8.38;1.88;;;17.50;99.90;;;;;;5086926;28;20052;-65
2022/07/22 08:50:51;;;;;;;7.53;1.80;;;17.40;99.90;;;;;;5104364;27;20377;-67
2022/07/22 08:53:16;;;;;;;5.97;1.90;;;17.40;99.90;;;;;;5114869;27;20097;-65
2022/07/22 08:55:47;;;;;;;4.78;1.70;;;17.50;99.90;;;;;;5091748;27;20473;-66
2022/07/22 08:58:13;;;;;;;5.20;1.77;;;17.50;99.90;;;;;;5091695;27;20090;-68
2022/07/22 09:00:39;;;;;;;17.20;1.77;;;17.50;99.90;;;;;;5114119;27;20142;-66
2022/07/22 09:03:21;;;;;;;8.93;1.77;;;17.50;99.90;;;;;;5124201;27;20481;-66
2022/07/22 09:05:47;;;;;;;11.85;1.83;;;17.40;99.90;;;;;;5112496;27;20050;-65
2022/07/22 09:08:13;;;;;;;4.53;1.50;;;17.40;99.90;;;;;;5125364;27;20058;-67
2022/07/22 09:10:39;;;;;;;6.00;2.00;;;17.50;99.90;;;;;;5117018;27;20055;-66
2022/07/22 09:13:08;;;;;;;6.57;1.65;;;17.50;99.90;;;;;;5088677;27;20130;-67
2022/07/22 09:15:42;;;;;;;7.13;1.58;;;17.50;99.90;;;;;;5093894;27;20031;-67
2022/07/22 09:18:08;;;;;;;6.78;1.70;;;17.50;99.90;;;;;;5123064;27;20405;-67
2022/07/22 09:20:35;;;;;;;7.85;1.73;;;17.50;99.90;;;;;;5087511;27;20065;-67
2022/07/22 09:23:08;;;;;;;3.78;1.38;;;17.50;99.90;;;;;;5091326;27;20047;-66
2022/07/22 09:25:35;;;;;;;8.30;1.85;;;17.50;99.90;;;;;;5126359;27;20042;-66
2022/07/22 09:28:07;;;;;;;5.80;1.35;;;17.60;99.90;;;;;;5093209;27;20048;-66
2022/07/22 09:30:35;;;;;;;5.70;1.23;;;17.70;99.90;;;;;;5088869;27;20047;-67
2022/07/22 09:33:03;;;;;;;11.95;1.88;;;17.80;99.90;;;;;;5118301;27;20523;-66
2022/07/22 09:35:30;;;;;;;6.20;2.13;;;17.80;99.90;;;;;;5095595;27;20505;-66
2022/07/22 09:37:58;;;;;;;6.05;1.77;;;17.90;99.90;;;;;;5113544;27;20035;-66
2022/07/22 09:40:25;;;;;;;6.18;1.67;;;17.90;99.90;;;;;;5113160;27;20054;-66
2022/07/22 09:42:57;;;;;;;8.50;1.67;;;17.90;99.90;;;;;;5102529;27;20058;-64
2022/07/22 09:45:25;;;;;;;5.55;1.48;;;18.00;99.90;;;;;;5102752;28;20401;-66
2022/07/22 09:47:51;;;;;;;7.28;1.60;;;18.00;99.90;;;;;;5106591;28;20047;-66
2022/07/22 09:50:18;;;;;;;5.50;1.50;;;17.90;99.90;;;;;;5106328;28;20040;-66
2022/07/22 09:52:45;;;;;;;5.88;1.73;;;17.80;99.90;;;;;;5107037;28;20047;-66
2022/07/22 09:55:14;;;;;;;7.75;1.50;;;17.70;99.90;;;;;;5108759;28;20085;-65
2022/07/22 09:57:39;;;;;;;4.55;1.48;;;17.80;99.90;;;;;;5105064;28;20102;-66
2022/07/22 10:00:09;;;;;;;8.35;1.48;;;17.80;99.90;;;;;;5105005;28;20036;-65
2022/07/22 10:02:41;;;;;;;7.80;1.50;;;17.80;99.90;;;;;;5106847;28;20074;-64
2022/07/22 10:05:14;;;;;;;7.00;1.67;;;17.90;99.90;;;;;;5100320;28;20035;-65
2022/07/22 10:07:45;;;;;;;8.98;2.10;;;17.40;99.90;;;;;;5119985;27;20035;-66
2022/07/22 10:10:13;;;;;;;5.63;1.15;;;18.10;99.90;;;;;;5106870;28;20086;-66
2022/07/22 10:12:40;;;;;;;5.65;1.58;;;18.20;99.90;;;;;;5100008;28;20135;-67
2022/07/22 10:15:07;;;;;;;4.40;1.20;;;18.30;99.90;;;;;;5105885;28;20067;-67
2022/07/22 10:17:37;;;;;;;6.38;1.10;;;18.30;99.90;;;;;;5108515;28;20449;-65
2022/07/22 10:20:05;;;;;;;3.65;1.23;;;18.40;99.90;;;;;;5116743;28;20043;-66
2022/07/22 10:22:44;;;;;;;;;;;18.50;99.90;;;;;;5088289;28;20044;-67
2022/07/22 10:25:12;;;;;;;4.63;1.33;;;18.50;99.90;;;;;;5110146;28;19924;-67
2022/07/22 10:28:02;;;;;;;6.20;1.65;;;18.60;99.90;;;;;;5100799;28;20075;-65
2022/07/22 10:30:29;;;;;;;3.47;1.30;;;18.70;99.90;;;;;;5063794;28;20390;-67
2022/07/22 10:33:28;;;;;;;5.72;1.30;;;18.90;99.90;;;;;;5085817;28;20048;-68
2022/07/22 10:36:02;;;;;;;5.43;1.70;;;19.00;99.90;;;;;;5085668;28;20040;-67
2022/07/22 10:38:30;;;;;;;5.63;1.60;;;19.00;99.90;;;;;;5081145;28;20040;-68
2022/07/22 10:41:00;;;;;;;6.18;1.80;;;19.00;99.90;;;;;;5070582;28;20048;-67
2022/07/22 10:43:27;;;;;;;4.90;1.40;;;18.90;99.90;;;;;;5064282;28;20126;-67
2022/07/22 10:46:02;;;;;;;9.40;1.77;;;18.90;99.90;;;;;;5084959;28;20040;-66
2022/07/22 10:48:41;;;;;;;7.20;1.67;;;18.90;99.90;;;;;;5065959;28;20115;-68
2022/07/22 10:51:18;;;;;;;4.93;1.60;;;18.80;99.90;;;;;;5085529;28;20101;-67
2022/07/22 10:54:01;;;;;;;4.03;1.30;;;18.70;99.90;;;;;;5083263;28;20129;-67
2022/07/22 10:56:41;;;;;;;4.85;1.38;;;18.70;99.90;;;;;;5047346;28;20064;-69
2022/07/22 10:59:11;;;;;;;4.88;1.25;;;18.60;99.90;;;;;;5066416;28;20040;-66
2022/07/22 11:01:40;;;;;;;5.32;1.30;;;18.60;99.90;;;;;;5088234;28;20035;-69
2022/07/22 11:04:14;;;;;;;2.55;1.10;;;18.70;99.90;;;;;;5048586;28;20099;-66
2022/07/22 11:06:41;;;;;;;5.32;1.40;;;18.80;99.90;;;;;;5085244;28;20047;-66
2022/07/22 11:09:10;;;;;;;7.20;1.50;;;18.80;99.90;;;;;;5084239;28;20482;-67
2022/07/22 11:11:42;;;;;;;5.25;1.23;;;18.80;99.90;;;;;;5089107;28;20482;-66
2022/07/22 11:14:21;;;;;;;5.03;1.35;;;18.80;99.90;;;;;;5088353;28;20040;-66
2022/07/22 11:16:59;;;;;;;3.15;1.15;;;18.80;99.90;;;;;;5082159;28;20047;-66
2022/07/22 11:19:29;;;;;;;5.72;1.50;;;18.80;99.90;;;;;;5084956;28;20050;-68
2022/07/22 11:21:58;;;;;;;3.25;1.08;;;18.60;99.90;;;;;;5072310;28;20032;-66
2022/07/22 11:24:25;;;;;;;5.28;0.90;;;18.50;99.90;;;;;;5087465;28;20044;-67
2022/07/22 11:26:54;;;;;;;2.45;1.05;;;18.40;99.90;;;;;;5092353;27;20160;-65
2022/07/22 11:29:41;;;;;;;3.00;1.25;;;18.40;99.90;;;;;;5110233;27;20043;-65
2022/07/22 11:32:10;;;;;;;3.60;1.10;;;18.40;99.90;;;;;;5109939;27;20405;-67
2022/07/22 11:34:47;;;;;;;3.40;0.90;;;18.40;99.90;;;;;;5095226;27;20067;-67
2022/07/22 11:37:14;;;;;;;5.30;1.00;;;18.40;99.90;;;;;;5089976;28;20094;-66
2022/07/22 11:39:40;;;;;;;3.75;1.20;;;18.40;99.90;;;;;;5090895;27;20055;-66
2022/07/22 11:42:06;;;;;;;2.75;1.10;;;18.50;99.90;;;;;;5094133;27;20046;-66
2022/07/22 11:44:38;;;;;;;2.80;1.20;;;18.60;99.90;;;;;;5109441;27;20039;-66
2022/07/22 11:47:06;;;;;;;5.50;0.88;;;18.80;99.90;;;;;;5090446;28;20054;-67
2022/07/22 11:49:35;;;;;;;3.65;1.20;;;18.90;99.90;;;;;;5110655;27;20036;-68
2022/07/22 11:52:03;;;;;;;6.20;1.00;;;18.90;99.90;;;;;;5107688;27;20036;-66
2022/07/22 11:54:28;;;;;;;8.07;1.55;;;18.90;99.90;;;;;;5112234;27;20396;-67
2022/07/22 11:56:54;;;;;;;2.40;0.88;;;19.00;99.90;;;;;;5112055;27;20043;-67
2022/07/22 11:59:20;;;;;;;2.38;0.82;;;19.10;99.90;;;;;;5114699;27;20040;-66
2022/07/22 12:01:48;;;;;;;2.15;1.10;;;19.10;99.90;;;;;;5110728;27;20377;-67
2022/07/22 12:04:24;;;;;;;3.00;1.08;;;19.20;99.90;;;;;;5094175;27;20120;-68
2022/07/22 12:06:56;;;;;;;4.63;1.30;;;19.10;99.90;;;;;;5113159;27;20047;-67
2022/07/22 12:09:24;;;;;;;4.43;1.10;;;19.20;99.90;;;;;;5113262;27;20050;-66
2022/07/22 12:11:53;;;;;;;1.30;0.88;;;19.10;99.90;;;;;;5106863;27;20505;-66
2022/07/22 12:14:24;;;;;;;4.03;1.00;;;19.10;99.90;;;;;;5111400;27;20771;-65
2022/07/22 12:17:04;;;;;;;1.92;0.77;;;19.20;99.90;;;;;;5111209;27;20043;-66
2022/07/22 12:19:32;;;;;;;1.33;0.80;;;19.40;99.90;;;;;;5110922;27;20047;-66
2022/07/22 12:22:04;;;;;;;6.03;1.08;;;19.50;99.90;;;;;;5089398;27;20115;-66
2022/07/22 12:24:34;;;;;;;4.32;1.33;;;19.50;99.90;;;;;;5113963;27;20039;-66
2022/07/22 12:27:03;;;;;;;3.67;1.30;;;19.60;99.90;;;;;;5111324;27;20524;-66
2022/07/22 12:29:39;;;;;;;3.55;1.08;;;19.70;99.90;;;;;;5112724;27;20122;-66
2022/07/22 12:32:18;;;;;;;4.90;1.13;;;19.70;99.90;;;;;;5109661;27;20126;-66
2022/07/22 12:35:00;;;;;;;3.05;1.02;;;19.80;99.90;;;;;;5088356;28;20510;-66
2022/07/22 12:37:28;;;;;;;2.70;1.00;;;19.90;99.90;;;;;;5108757;27;20123;-66
2022/07/22 12:40:02;;;;;;;;;;;19.80;99.90;;;;;;5108921;27;20093;-66
2022/07/22 12:42:34;;;;;;;1.92;1.17;;;19.80;99.90;;;;;;5101620;27;20473;-67
2022/07/22 12:45:02;;;;;;;4.78;1.00;;;19.70;99.90;;;;;;5109786;27;20524;-67
2022/07/22 12:47:49;;;;;;;5.15;1.42;;;19.70;99.90;;;;;;5089333;27;20631;-66